sensor_id;sensor_type;location;lat;lon;timestamp;pressure;altitude;pressure_sealevel;temperature;humidity
6694;BME280;3384;42.628;23.380;2023-08-24T00:00:23;94348.06;;;23.86;100.00
6694;BME280;3384;42.628;23.380;2023-08-24T00:02:50;94353.66;;;23.46;100.00
6694;BME280;3384;42.628;23.380;2023-08-24T00:05:17;94344.84;;;23.23;100.00
6694;BME280;3384;42.628;23.380;2023-08-24T00:07:44;94344.91;;;23.30;100.00
6694;BME280;3384;42.628;23.380;2023-08-24T00:10:13;94345.34;;;23.35;100.00
6694;BME280;3384;42.628;23.380;2023-08-24T00:12:41;94349.03;;;23.53;100.00
6694;BME280;3384;42.628;23.380;2023-08-24T00:15:09;94353.28;;;23.47;100.00
6694;BME280;3384;42.628;23.380;2023-08-24T00:17:36;94342.06;;;23.66;100.00
6694;BME280;3384;42.628;23.380;2023-08-24T00:20:04;94344.38;;;23.61;100.00
6694;BME280;3384;42.628;23.380;2023-08-24T00:22:32;94337.91;;;23.83;100.00
6694;BME280;3384;42.628;23.380;2023-08-24T00:24:58;94346.38;;;23.64;100.00
6694;BME280;3384;42.628;23.380;2023-08-24T00:27:25;94336.22;;;23.68;100.00
6694;BME280;3384;42.628;23.380;2023-08-24T00:29:53;94327.94;;;23.57;100.00
6694;BME280;3384;42.628;23.380;2023-08-24T00:32:21;94334.88;;;23.48;100.00
6694;BME280;3384;42.628;23.380;2023-08-24T00:34:48;94338.84;;;23.54;100.00
6694;BME280;3384;42.628;23.380;2023-08-24T00:37:15;94332.56;;;23.50;100.00
6694;BME280;3384;42.628;23.380;2023-08-24T00:39:42;94321.56;;;23.43;100.00
6694;BME280;3384;42.628;23.380;2023-08-24T00:42:09;94326.94;;;23.32;100.00
6694;BME280;3384;42.628;23.380;2023-08-24T00:44:40;94330.81;;;23.24;100.00
6694;BME280;3384;42.628;23.380;2023-08-24T00:47:08;94330.72;;;23.17;100.00
6694;BME280;3384;42.628;23.380;2023-08-24T00:49:35;94331.50;;;23.18;100.00
6694;BME280;3384;42.628;23.380;2023-08-24T00:52:03;94336.22;;;23.21;100.00
6694;BME280;3384;42.628;23.380;2023-08-24T00:54:30;94337.00;;;23.21;100.00
6694;BME280;3384;42.628;23.380;2023-08-24T00:56:57;94336.75;;;23.33;100.00
6694;BME280;3384;42.628;23.380;2023-08-24T00:59:24;94339.91;;;23.39;100.00
6694;BME280;3384;42.628;23.380;2023-08-24T01:01:50;94343.63;;;23.60;100.00
6694;BME280;3384;42.628;23.380;2023-08-24T01:04:19;94344.63;;;23.42;100.00
6694;BME280;3384;42.628;23.380;2023-08-24T01:06:46;94337.75;;;23.18;100.00
6694;BME280;3384;42.628;23.380;2023-08-24T01:09:13;94342.34;;;23.07;100.00
6694;BME280;3384;42.628;23.380;2023-08-24T01:11:47;94347.28;;;22.95;100.00
6694;BME280;3384;42.628;23.380;2023-08-24T01:14:22;94343.38;;;22.59;100.00
6694;BME280;3384;42.628;23.380;2023-08-24T01:16:51;94341.13;;;22.35;100.00
6694;BME280;3384;42.628;23.380;2023-08-24T01:19:30;94337.34;;;22.43;100.00
6694;BME280;3384;42.628;23.380;2023-08-24T01:22:02;94340.41;;;22.71;100.00
6694;BME280;3384;42.628;23.380;2023-08-24T01:24:36;94339.06;;;22.25;100.00
6694;BME280;3384;42.628;23.380;2023-08-24T01:27:06;94337.34;;;22.43;100.00
6694;BME280;3384;42.628;23.380;2023-08-24T01:29:35;94348.91;;;22.33;100.00
6694;BME280;3384;42.628;23.380;2023-08-24T01:32:04;94336.75;;;22.27;100.00
6694;BME280;3384;42.628;23.380;2023-08-24T01:34:31;94340.22;;;22.24;100.00
6694;BME280;3384;42.628;23.380;2023-08-24T01:36:58;94341.66;;;22.15;100.00
6694;BME280;3384;42.628;23.380;2023-08-24T01:39:33;94338.31;;;22.28;100.00
6694;BME280;3384;42.628;23.380;2023-08-24T01:42:03;94341.31;;;22.20;100.00
6694;BME280;3384;42.628;23.380;2023-08-24T01:44:35;94342.28;;;22.64;100.00
6694;BME280;3384;42.628;23.380;2023-08-24T01:47:04;94339.47;;;22.57;100.00
6694;BME280;3384;42.628;23.380;2023-08-24T01:49:33;94336.34;;;22.25;100.00
6694;BME280;3384;42.628;23.380;2023-08-24T01:52:01;94342.84;;;22.17;100.00
6694;BME280;3384;42.628;23.380;2023-08-24T01:54:28;94346.31;;;22.14;100.00
6694;BME280;3384;42.628;23.380;2023-08-24T01:56:55;94335.19;;;22.26;100.00
6694;BME280;3384;42.628;23.380;2023-08-24T01:59:22;94333.81;;;22.10;100.00
6694;BME280;3384;42.628;23.380;2023-08-24T02:01:50;94331.72;;;22.29;100.00
6694;BME280;3384;42.628;23.380;2023-08-24T02:04:17;94327.13;;;22.07;100.00
6694;BME280;3384;42.628;23.380;2023-08-24T02:06:43;94334.94;;;22.09;100.00
6694;BME280;3384;42.628;23.380;2023-08-24T02:09:10;94329.09;;;22.07;100.00
6694;BME280;3384;42.628;23.380;2023-08-24T02:11:37;94352.41;;;22.34;100.00
6694;BME280;3384;42.628;23.380;2023-08-24T02:14:04;94340.72;;;22.33;100.00
6694;BME280;3384;42.628;23.380;2023-08-24T02:16:31;94341.88;;;22.32;100.00
6694;BME280;3384;42.628;23.380;2023-08-24T02:19:00;94347.47;;;22.13;100.00
6694;BME280;3384;42.628;23.380;2023-08-24T02:21:26;94343.84;;;22.02;100.00
6694;BME280;3384;42.628;23.380;2023-08-24T02:23:53;94343.09;;;22.05;100.00
6694;BME280;3384;42.628;23.380;2023-08-24T02:26:20;94341.94;;;22.06;100.00
6694;BME280;3384;42.628;23.380;2023-08-24T02:28:47;94342.81;;;21.84;100.00
6694;BME280;3384;42.628;23.380;2023-08-24T02:31:13;94350.56;;;22.08;100.00
6694;BME280;3384;42.628;23.380;2023-08-24T02:33:41;94357.03;;;22.26;100.00
6694;BME280;3384;42.628;23.380;2023-08-24T02:36:09;94360.16;;;22.28;100.00
6694;BME280;3384;42.628;23.380;2023-08-24T02:38:36;94349.22;;;22.28;100.00
6694;BME280;3384;42.628;23.380;2023-08-24T02:41:03;94350.94;;;22.40;100.00
6694;BME280;3384;42.628;23.380;2023-08-24T02:43:30;94357.75;;;22.53;100.00
6694;BME280;3384;42.628;23.380;2023-08-24T02:46:01;94355.13;;;22.63;100.00
6694;BME280;3384;42.628;23.380;2023-08-24T02:48:28;94356.38;;;22.69;100.00
6694;BME280;3384;42.628;23.380;2023-08-24T02:50:57;94348.97;;;22.70;100.00
6694;BME280;3384;42.628;23.380;2023-08-24T02:53:25;94337.25;;;22.69;100.00
6694;BME280;3384;42.628;23.380;2023-08-24T02:55:52;94339.97;;;22.66;100.00
6694;BME280;3384;42.628;23.380;2023-08-24T02:58:19;94334.22;;;22.74;100.00
6694;BME280;3384;42.628;23.380;2023-08-24T03:00:46;94329.47;;;22.71;100.00
6694;BME280;3384;42.628;23.380;2023-08-24T03:03:13;94326.16;;;22.52;100.00
6694;BME280;3384;42.628;23.380;2023-08-24T03:05:40;94323.38;;;22.19;100.00
6694;BME280;3384;42.628;23.380;2023-08-24T03:08:07;94327.59;;;22.46;100.00
6694;BME280;3384;42.628;23.380;2023-08-24T03:10:36;94331.84;;;22.73;100.00
6694;BME280;3384;42.628;23.380;2023-08-24T03:13:03;94328.44;;;22.17;100.00
6694;BME280;3384;42.628;23.380;2023-08-24T03:15:30;94323.72;;;21.84;100.00
6694;BME280;3384;42.628;23.380;2023-08-24T03:17:57;94323.75;;;21.88;100.00
6694;BME280;3384;42.628;23.380;2023-08-24T03:20:24;94334.06;;;22.01;100.00
6694;BME280;3384;42.628;23.380;2023-08-24T03:22:51;94325.41;;;21.96;100.00
6694;BME280;3384;42.628;23.380;2023-08-24T03:25:17;94324.28;;;22.00;100.00
6694;BME280;3384;42.628;23.380;2023-08-24T03:27:46;94327.56;;;22.13;100.00
6694;BME280;3384;42.628;23.380;2023-08-24T03:30:13;94344.09;;;21.94;100.00
6694;BME280;3384;42.628;23.380;2023-08-24T03:32:40;94344.03;;;21.90;100.00
6694;BME280;3384;42.628;23.380;2023-08-24T03:35:08;94352.25;;;22.20;100.00
6694;BME280;3384;42.628;23.380;2023-08-24T03:37:34;94355.63;;;22.39;100.00
6694;BME280;3384;42.628;23.380;2023-08-24T03:40:01;94360.94;;;21.73;100.00
6694;BME280;3384;42.628;23.380;2023-08-24T03:42:30;94366.53;;;21.80;100.00
6694;BME280;3384;42.628;23.380;2023-08-24T03:44:59;94388.22;;;21.73;100.00
6694;BME280;3384;42.628;23.380;2023-08-24T03:47:26;94388.72;;;21.79;100.00
6694;BME280;3384;42.628;23.380;2023-08-24T03:49:53;94390.75;;;21.85;100.00
6694;BME280;3384;42.628;23.380;2023-08-24T03:52:20;94383.84;;;21.91;100.00
6694;BME280;3384;42.628;23.380;2023-08-24T03:54:47;94391.13;;;22.10;100.00
6694;BME280;3384;42.628;23.380;2023-08-24T03:57:14;94396.94;;;21.82;100.00
6694;BME280;3384;42.628;23.380;2023-08-24T03:59:41;94403.09;;;21.76;100.00
6694;BME280;3384;42.628;23.380;2023-08-24T04:02:10;94408.22;;;21.81;100.00
6694;BME280;3384;42.628;23.380;2023-08-24T04:04:37;94388.59;;;21.98;100.00
6694;BME280;3384;42.628;23.380;2023-08-24T04:07:03;94391.69;;;21.96;100.00
6694;BME280;3384;42.628;23.380;2023-08-24T04:09:30;94394.69;;;22.14;100.00
6694;BME280;3384;42.628;23.380;2023-08-24T04:11:57;94391.72;;;22.26;100.00
6694;BME280;3384;42.628;23.380;2023-08-24T04:14:24;94398.53;;;22.39;100.00
6694;BME280;3384;42.628;23.380;2023-08-24T04:16:50;94384.59;;;22.47;100.00
6694;BME280;3384;42.628;23.380;2023-08-24T04:19:19;94376.34;;;22.44;100.00
6694;BME280;3384;42.628;23.380;2023-08-24T04:21:46;94387.53;;;22.32;100.00
6694;BME280;3384;42.628;23.380;2023-08-24T04:24:12;94381.59;;;22.26;100.00
6694;BME280;3384;42.628;23.380;2023-08-24T04:26:39;94378.78;;;22.19;100.00
6694;BME280;3384;42.628;23.380;2023-08-24T04:29:06;94375.63;;;22.17;100.00
6694;BME280;3384;42.628;23.380;2023-08-24T04:31:33;94377.94;;;21.63;100.00
6694;BME280;3384;42.628;23.380;2023-08-24T04:34:02;94380.81;;;21.47;100.00
6694;BME280;3384;42.628;23.380;2023-08-24T04:36:31;94373.56;;;21.58;100.00
6694;BME280;3384;42.628;23.380;2023-08-24T04:38:58;94373.63;;;21.62;100.00
6694;BME280;3384;42.628;23.380;2023-08-24T04:41:25;94378.06;;;21.47;100.00
6694;BME280;3384;42.628;23.380;2023-08-24T04:43:52;94389.09;;;21.54;100.00
6694;BME280;3384;42.628;23.380;2023-08-24T04:46:19;94398.16;;;21.62;100.00
6694;BME280;3384;42.628;23.380;2023-08-24T04:48:45;94396.91;;;21.79;100.00
6694;BME280;3384;42.628;23.380;2023-08-24T04:51:12;94392.31;;;21.86;100.00
6694;BME280;3384;42.628;23.380;2023-08-24T04:53:40;94399.84;;;21.93;100.00
6694;BME280;3384;42.628;23.380;2023-08-24T04:56:07;94402.00;;;22.06;100.00
6694;BME280;3384;42.628;23.380;2023-08-24T04:58:34;94390.66;;;21.78;100.00
6694;BME280;3384;42.628;23.380;2023-08-24T05:01:01;94386.88;;;21.63;100.00
6694;BME280;3384;42.628;23.380;2023-08-24T05:03:27;94398.16;;;21.85;100.00
6694;BME280;3384;42.628;23.380;2023-08-24T05:05:54;94395.38;;;22.07;100.00
6694;BME280;3384;42.628;23.380;2023-08-24T05:08:21;94399.88;;;22.22;100.00
6694;BME280;3384;42.628;23.380;2023-08-24T05:10:49;94399.19;;;22.29;100.00
6694;BME280;3384;42.628;23.380;2023-08-24T05:13:16;94394.34;;;22.19;100.00
6694;BME280;3384;42.628;23.380;2023-08-24T05:15:43;94397.75;;;22.38;100.00
6694;BME280;3384;42.628;23.380;2023-08-24T05:18:10;94394.56;;;22.62;100.00
6694;BME280;3384;42.628;23.380;2023-08-24T05:20:36;94394.63;;;22.69;100.00
6694;BME280;3384;42.628;23.380;2023-08-24T05:23:03;94393.78;;;22.62;100.00
6694;BME280;3384;42.628;23.380;2023-08-24T05:25:31;94400.44;;;22.64;100.00
6694;BME280;3384;42.628;23.380;2023-08-24T05:28:00;94401.47;;;22.53;100.00
6694;BME280;3384;42.628;23.380;2023-08-24T05:30:28;94412.28;;;22.16;100.00
6694;BME280;3384;42.628;23.380;2023-08-24T05:32:55;94394.50;;;22.29;100.00
6694;BME280;3384;42.628;23.380;2023-08-24T05:35:22;94408.75;;;22.45;100.00
6694;BME280;3384;42.628;23.380;2023-08-24T05:37:49;94406.06;;;22.19;100.00
6694;BME280;3384;42.628;23.380;2023-08-24T05:40:15;94404.13;;;22.20;100.00
6694;BME280;3384;42.628;23.380;2023-08-24T05:42:42;94411.06;;;22.14;100.00
6694;BME280;3384;42.628;23.380;2023-08-24T05:45:11;94419.41;;;22.50;100.00
6694;BME280;3384;42.628;23.380;2023-08-24T05:47:42;94418.66;;;22.86;100.00
6694;BME280;3384;42.628;23.380;2023-08-24T05:50:09;94409.94;;;22.74;100.00
6694;BME280;3384;42.628;23.380;2023-08-24T05:52:37;94424.94;;;22.87;100.00
6694;BME280;3384;42.628;23.380;2023-08-24T05:55:04;94416.09;;;23.00;100.00
6694;BME280;3384;42.628;23.380;2023-08-24T05:57:31;94428.09;;;23.25;100.00
6694;BME280;3384;42.628;23.380;2023-08-24T05:59:58;94425.25;;;23.18;100.00
6694;BME280;3384;42.628;23.380;2023-08-24T06:02:26;94428.66;;;23.41;100.00
6694;BME280;3384;42.628;23.380;2023-08-24T06:04:53;94429.53;;;23.52;100.00
6694;BME280;3384;42.628;23.380;2023-08-24T06:07:19;94433.94;;;23.24;100.00
6694;BME280;3384;42.628;23.380;2023-08-24T06:09:47;94432.72;;;23.21;100.00
6694;BME280;3384;42.628;23.380;2023-08-24T06:12:14;94433.44;;;23.18;100.00
6694;BME280;3384;42.628;23.380;2023-08-24T06:14:40;94429.22;;;23.21;100.00
6694;BME280;3384;42.628;23.380;2023-08-24T06:17:07;94429.06;;;23.43;100.00
6694;BME280;3384;42.628;23.380;2023-08-24T06:19:35;94439.72;;;23.55;100.00
6694;BME280;3384;42.628;23.380;2023-08-24T06:22:02;94432.56;;;23.40;100.00
6694;BME280;3384;42.628;23.380;2023-08-24T06:24:29;94443.06;;;23.35;100.00
6694;BME280;3384;42.628;23.380;2023-08-24T06:26:56;94445.19;;;23.52;100.00
6694;BME280;3384;42.628;23.380;2023-08-24T06:29:23;94434.69;;;23.61;100.00
6694;BME280;3384;42.628;23.380;2023-08-24T06:31:49;94427.34;;;23.68;100.00
6694;BME280;3384;42.628;23.380;2023-08-24T06:34:18;94433.25;;;23.77;100.00
6694;BME280;3384;42.628;23.380;2023-08-24T06:36:46;94433.81;;;23.93;100.00
6694;BME280;3384;42.628;23.380;2023-08-24T06:39:13;94432.50;;;23.77;100.00
6694;BME280;3384;42.628;23.380;2023-08-24T06:41:40;94427.44;;;23.82;100.00
6694;BME280;3384;42.628;23.380;2023-08-24T06:44:07;94435.88;;;23.63;100.00
6694;BME280;3384;42.628;23.380;2023-08-24T06:46:34;94436.31;;;23.69;100.00
6694;BME280;3384;42.628;23.380;2023-08-24T06:49:00;94429.25;;;23.64;100.00
6694;BME280;3384;42.628;23.380;2023-08-24T06:51:27;94426.16;;;23.69;100.00
6694;BME280;3384;42.628;23.380;2023-08-24T06:53:56;94424.41;;;23.47;100.00
6694;BME280;3384;42.628;23.380;2023-08-24T06:56:22;94432.44;;;23.70;100.00
6694;BME280;3384;42.628;23.380;2023-08-24T06:58:49;94439.63;;;23.88;100.00
6694;BME280;3384;42.628;23.380;2023-08-24T07:01:16;94431.13;;;24.00;100.00
6694;BME280;3384;42.628;23.380;2023-08-24T07:03:43;94431.50;;;23.99;100.00
6694;BME280;3384;42.628;23.380;2023-08-24T07:06:10;94434.75;;;24.15;100.00
6694;BME280;3384;42.628;23.380;2023-08-24T07:08:38;94427.84;;;24.35;100.00
6694;BME280;3384;42.628;23.380;2023-08-24T07:11:06;94423.91;;;24.33;100.00
6694;BME280;3384;42.628;23.380;2023-08-24T07:13:33;94428.72;;;24.57;100.00
6694;BME280;3384;42.628;23.380;2023-08-24T07:16:00;94427.41;;;25.01;100.00
6694;BME280;3384;42.628;23.380;2023-08-24T07:18:28;94437.53;;;24.90;100.00
6694;BME280;3384;42.628;23.380;2023-08-24T07:20:55;94419.91;;;24.88;100.00
6694;BME280;3384;42.628;23.380;2023-08-24T07:23:22;94427.38;;;24.98;100.00
6694;BME280;3384;42.628;23.380;2023-08-24T07:25:48;94412.63;;;25.51;100.00
6694;BME280;3384;42.628;23.380;2023-08-24T07:28:17;94414.13;;;25.21;100.00
6694;BME280;3384;42.628;23.380;2023-08-24T07:30:43;94416.09;;;25.24;100.00
6694;BME280;3384;42.628;23.380;2023-08-24T07:33:10;94411.75;;;25.16;100.00
6694;BME280;3384;42.628;23.380;2023-08-24T07:35:37;94421.56;;;25.20;100.00
6694;BME280;3384;42.628;23.380;2023-08-24T07:38:04;94406.28;;;25.23;100.00
6694;BME280;3384;42.628;23.380;2023-08-24T07:40:31;94416.19;;;25.59;100.00
6694;BME280;3384;42.628;23.380;2023-08-24T07:42:58;94423.22;;;25.39;100.00
6694;BME280;3384;42.628;23.380;2023-08-24T07:45:27;94404.00;;;25.32;100.00
6694;BME280;3384;42.628;23.380;2023-08-24T07:47:54;94432.63;;;25.38;100.00
6694;BME280;3384;42.628;23.380;2023-08-24T07:50:21;94407.94;;;25.52;100.00
6694;BME280;3384;42.628;23.380;2023-08-24T07:52:48;94415.78;;;25.85;100.00
6694;BME280;3384;42.628;23.380;2023-08-24T07:55:15;94409.53;;;25.84;100.00
6694;BME280;3384;42.628;23.380;2023-08-24T07:57:42;94391.47;;;25.87;100.00
6694;BME280;3384;42.628;23.380;2023-08-24T08:00:10;94399.31;;;25.92;100.00
6694;BME280;3384;42.628;23.380;2023-08-24T08:02:40;94396.97;;;26.15;100.00
6694;BME280;3384;42.628;23.380;2023-08-24T08:05:07;94407.53;;;26.34;100.00
6694;BME280;3384;42.628;23.380;2023-08-24T08:07:35;94413.34;;;26.57;100.00
6694;BME280;3384;42.628;23.380;2023-08-24T08:10:04;94414.50;;;26.77;100.00
6694;BME280;3384;42.628;23.380;2023-08-24T08:12:31;94414.84;;;26.90;100.00
6694;BME280;3384;42.628;23.380;2023-08-24T08:14:58;94409.81;;;26.74;100.00
6694;BME280;3384;42.628;23.380;2023-08-24T08:17:26;94411.41;;;26.61;100.00
6694;BME280;3384;42.628;23.380;2023-08-24T08:19:55;94420.06;;;26.56;97.62
6694;BME280;3384;42.628;23.380;2023-08-24T08:22:22;94411.41;;;26.65;97.05
6694;BME280;3384;42.628;23.380;2023-08-24T08:24:50;94412.22;;;26.62;97.80
6694;BME280;3384;42.628;23.380;2023-08-24T08:27:19;94410.50;;;26.92;95.21
6694;BME280;3384;42.628;23.380;2023-08-24T08:29:47;94406.97;;;26.95;95.03
6694;BME280;3384;42.628;23.380;2023-08-24T08:32:13;94415.59;;;27.01;93.72
6694;BME280;3384;42.628;23.380;2023-08-24T08:34:40;94413.22;;;26.99;93.72
6694;BME280;3384;42.628;23.380;2023-08-24T08:37:08;94392.19;;;27.40;89.93
6694;BME280;3384;42.628;23.380;2023-08-24T08:39:36;94393.47;;;27.25;90.17
6694;BME280;3384;42.628;23.380;2023-08-24T08:42:03;94391.00;;;27.45;88.53
6694;BME280;3384;42.628;23.380;2023-08-24T08:44:31;94391.75;;;27.52;87.88
6694;BME280;3384;42.628;23.380;2023-08-24T08:46:58;94388.53;;;27.57;85.90
6694;BME280;3384;42.628;23.380;2023-08-24T08:49:25;94382.06;;;27.81;84.19
6694;BME280;3384;42.628;23.380;2023-08-24T08:51:52;94387.41;;;28.02;83.79
6694;BME280;3384;42.628;23.380;2023-08-24T08:54:20;94385.81;;;28.05;84.80
6694;BME280;3384;42.628;23.380;2023-08-24T08:56:48;94376.00;;;28.04;83.25
6694;BME280;3384;42.628;23.380;2023-08-24T08:59:15;94393.19;;;28.18;83.22
6694;BME280;3384;42.628;23.380;2023-08-24T09:01:44;94370.25;;;27.84;83.88
6694;BME280;3384;42.628;23.380;2023-08-24T09:04:12;94368.88;;;28.06;82.10
6694;BME280;3384;42.628;23.380;2023-08-24T09:06:40;94375.06;;;28.17;81.57
6694;BME280;3384;42.628;23.380;2023-08-24T09:09:07;94368.66;;;28.31;80.42
6694;BME280;3384;42.628;23.380;2023-08-24T09:11:36;94365.16;;;28.27;79.78
6694;BME280;3384;42.628;23.380;2023-08-24T09:14:04;94364.75;;;28.28;81.03
6694;BME280;3384;42.628;23.380;2023-08-24T09:16:32;94367.34;;;28.42;79.87
6694;BME280;3384;42.628;23.380;2023-08-24T09:18:59;94357.69;;;28.61;79.57
6694;BME280;3384;42.628;23.380;2023-08-24T09:21:26;94356.22;;;28.53;78.29
6694;BME280;3384;42.628;23.380;2023-08-24T09:23:54;94348.22;;;28.62;77.25
6694;BME280;3384;42.628;23.380;2023-08-24T09:26:27;94339.06;;;28.72;77.51
6694;BME280;3384;42.628;23.380;2023-08-24T09:28:56;94345.66;;;28.78;76.19
6694;BME280;3384;42.628;23.380;2023-08-24T09:31:23;94332.81;;;28.64;77.21
6694;BME280;3384;42.628;23.380;2023-08-24T09:33:59;94338.38;;;28.94;75.12
6694;BME280;3384;42.628;23.380;2023-08-24T09:36:26;94333.78;;;28.81;75.02
6694;BME280;3384;42.628;23.380;2023-08-24T09:38:55;94326.56;;;28.90;75.86
6694;BME280;3384;42.628;23.380;2023-08-24T09:41:22;94325.25;;;29.02;75.80
6694;BME280;3384;42.628;23.380;2023-08-24T09:43:49;94328.75;;;28.76;77.38
6694;BME280;3384;42.628;23.380;2023-08-24T09:46:19;94311.94;;;28.93;75.85
6694;BME280;3384;42.628;23.380;2023-08-24T09:48:53;94318.78;;;29.16;73.64
6694;BME280;3384;42.628;23.380;2023-08-24T09:51:22;94306.41;;;29.24;73.00
6694;BME280;3384;42.628;23.380;2023-08-24T09:53:49;94327.19;;;29.32;73.24
6694;BME280;3384;42.628;23.380;2023-08-24T09:56:16;94307.94;;;29.51;72.73
6694;BME280;3384;42.628;23.380;2023-08-24T09:58:44;94304.31;;;29.58;71.02
6694;BME280;3384;42.628;23.380;2023-08-24T10:01:12;94318.38;;;29.67;70.00
6694;BME280;3384;42.628;23.380;2023-08-24T10:03:41;94296.28;;;29.67;69.82
6694;BME280;3384;42.628;23.380;2023-08-24T10:06:10;94302.19;;;29.69;69.37
6694;BME280;3384;42.628;23.380;2023-08-24T10:08:42;94299.28;;;29.76;69.08
6694;BME280;3384;42.628;23.380;2023-08-24T10:11:10;94286.59;;;29.78;69.72
6694;BME280;3384;42.628;23.380;2023-08-24T10:13:46;94288.91;;;29.83;68.76
6694;BME280;3384;42.628;23.380;2023-08-24T10:16:16;94296.28;;;29.90;68.31
6694;BME280;3384;42.628;23.380;2023-08-24T10:18:47;94287.31;;;29.82;68.58
6694;BME280;3384;42.628;23.380;2023-08-24T10:21:14;94292.50;;;29.80;68.42
6694;BME280;3384;42.628;23.380;2023-08-24T10:23:43;94275.25;;;29.96;67.88
6694;BME280;3384;42.628;23.380;2023-08-24T10:26:10;94281.22;;;30.17;66.00
6694;BME280;3384;42.628;23.380;2023-08-24T10:28:38;94270.72;;;30.48;64.72
6694;BME280;3384;42.628;23.380;2023-08-24T10:31:06;94284.31;;;30.58;63.95
6694;BME280;3384;42.628;23.380;2023-08-24T10:33:33;94284.34;;;30.78;63.70
6694;BME280;3384;42.628;23.380;2023-08-24T10:36:06;94275.09;;;30.26;65.90
6694;BME280;3384;42.628;23.380;2023-08-24T10:38:39;94278.44;;;30.17;65.83
6694;BME280;3384;42.628;23.380;2023-08-24T10:41:06;94283.56;;;30.58;61.35
6694;BME280;3384;42.628;23.380;2023-08-24T10:43:34;94273.97;;;30.62;60.67
6694;BME280;3384;42.628;23.380;2023-08-24T10:46:02;94262.47;;;30.44;61.82
6694;BME280;3384;42.628;23.380;2023-08-24T10:48:29;94271.84;;;30.50;62.01
6694;BME280;3384;42.628;23.380;2023-08-24T10:51:21;94273.91;;;30.46;62.47
6694;BME280;3384;42.628;23.380;2023-08-24T10:53:52;94278.88;;;30.55;61.29
6694;BME280;3384;42.628;23.380;2023-08-24T10:56:20;94257.59;;;30.52;59.73
6694;BME280;3384;42.628;23.380;2023-08-24T10:58:48;94255.75;;;30.45;60.65
6694;BME280;3384;42.628;23.380;2023-08-24T11:01:35;94258.66;;;30.58;60.57
6694;BME280;3384;42.628;23.380;2023-08-24T11:04:05;94249.00;;;30.46;61.62
6694;BME280;3384;42.628;23.380;2023-08-24T11:06:34;94271.84;;;30.50;62.30
6694;BME280;3384;42.628;23.380;2023-08-24T11:09:08;94252.00;;;30.75;61.33
6694;BME280;3384;42.628;23.380;2023-08-24T11:11:39;94245.25;;;30.76;61.55
6694;BME280;3384;42.628;23.380;2023-08-24T11:14:16;94245.53;;;30.62;62.08
6694;BME280;3384;42.628;23.380;2023-08-24T11:16:46;94245.25;;;30.56;63.78
6694;BME280;3384;42.628;23.380;2023-08-24T11:19:13;94252.97;;;30.26;65.03
6694;BME280;3384;42.628;23.380;2023-08-24T11:21:42;94258.81;;;30.08;66.50
6694;BME280;3384;42.628;23.380;2023-08-24T11:24:11;94244.03;;;29.76;72.59
6694;BME280;3384;42.628;23.380;2023-08-24T11:26:42;94249.94;;;29.51;74.80
6694;BME280;3384;42.628;23.380;2023-08-24T11:29:10;94234.81;;;29.36;75.07
6694;BME280;3384;42.628;23.380;2023-08-24T11:31:37;94246.88;;;29.46;74.13
6694;BME280;3384;42.628;23.380;2023-08-24T11:34:05;94253.66;;;29.68;74.16
6694;BME280;3384;42.628;23.380;2023-08-24T11:36:43;94271.63;;;29.53;75.48
6694;BME280;3384;42.628;23.380;2023-08-24T11:39:15;94261.28;;;29.34;77.50
6694;BME280;3384;42.628;23.380;2023-08-24T11:41:43;94255.16;;;29.23;78.97
6694;BME280;3384;42.628;23.380;2023-08-24T11:44:11;94277.38;;;29.16;79.08
6694;BME280;3384;42.628;23.380;2023-08-24T11:46:38;94270.03;;;29.06;80.24
6694;BME280;3384;42.628;23.380;2023-08-24T11:49:05;94272.44;;;29.00;83.33
6694;BME280;3384;42.628;23.380;2023-08-24T11:51:32;94248.94;;;28.88;85.15
6694;BME280;3384;42.628;23.380;2023-08-24T11:54:02;94247.69;;;28.93;85.23
6694;BME280;3384;42.628;23.380;2023-08-24T11:56:29;94252.41;;;28.96;83.87
6694;BME280;3384;42.628;23.380;2023-08-24T11:58:56;94249.16;;;28.74;86.95
6694;BME280;3384;42.628;23.380;2023-08-24T12:01:23;94256.72;;;28.97;85.58
6694;BME280;3384;42.628;23.380;2023-08-24T12:03:52;94246.44;;;28.97;86.30
6694;BME280;3384;42.628;23.380;2023-08-24T12:06:19;94240.78;;;28.81;86.95
6694;BME280;3384;42.628;23.380;2023-08-24T12:08:47;94239.25;;;28.77;86.52
6694;BME280;3384;42.628;23.380;2023-08-24T12:11:18;94235.88;;;28.92;84.86
6694;BME280;3384;42.628;23.380;2023-08-24T12:13:46;94226.97;;;28.81;85.03
6694;BME280;3384;42.628;23.380;2023-08-24T12:16:15;94219.41;;;28.85;84.00
6694;BME280;3384;42.628;23.380;2023-08-24T12:18:49;94215.75;;;28.65;85.73
6694;BME280;3384;42.628;23.380;2023-08-24T12:21:17;94219.34;;;28.62;86.12
6694;BME280;3384;42.628;23.380;2023-08-24T12:23:45;94230.41;;;28.89;84.15
6694;BME280;3384;42.628;23.380;2023-08-24T12:26:19;94234.47;;;28.81;85.07
6694;BME280;3384;42.628;23.380;2023-08-24T12:28:49;94251.00;;;28.81;84.59
6694;BME280;3384;42.628;23.380;2023-08-24T12:31:17;94242.31;;;28.82;83.30
6694;BME280;3384;42.628;23.380;2023-08-24T12:33:44;94250.91;;;28.88;83.07
6694;BME280;3384;42.628;23.380;2023-08-24T12:36:11;94250.88;;;28.65;90.31
6694;BME280;3384;42.628;23.380;2023-08-24T12:38:37;94249.75;;;28.59;93.02
6694;BME280;3384;42.628;23.380;2023-08-24T12:41:07;94264.56;;;28.72;91.90
6694;BME280;3384;42.628;23.380;2023-08-24T12:43:35;94253.34;;;28.56;93.29
6694;BME280;3384;42.628;23.380;2023-08-24T12:46:02;94248.75;;;28.46;94.29
6694;BME280;3384;42.628;23.380;2023-08-24T12:48:29;94243.94;;;28.80;91.25
6694;BME280;3384;42.628;23.380;2023-08-24T12:50:56;94239.41;;;28.93;90.93
6694;BME280;3384;42.628;23.380;2023-08-24T12:53:22;94255.22;;;29.19;86.07
6694;BME280;3384;42.628;23.380;2023-08-24T12:55:49;94256.03;;;29.16;86.12
6694;BME280;3384;42.628;23.380;2023-08-24T12:58:16;94276.31;;;28.76;88.19
6694;BME280;3384;42.628;23.380;2023-08-24T13:00:45;94272.38;;;28.77;83.84
6694;BME280;3384;42.628;23.380;2023-08-24T13:03:12;94263.84;;;28.94;82.34
6694;BME280;3384;42.628;23.380;2023-08-24T13:05:39;94270.81;;;28.76;81.19
6694;BME280;3384;42.628;23.380;2023-08-24T13:08:06;94273.97;;;28.74;81.48